Time,TemperatureF,DewpointF,PressureIn,WindDirection,WindDirectionDegrees,WindSpeedMPH,WindSpeedGustMPH,Humidity,HourlyPrecipIn,Conditions,Clouds,dailyrainin,SolarRadiationWatts/m^2,SoftwareType,DateUTC
2013-09-02 00:00:00,70.4,50.9,29.78,SSW,212,1.0,1.0,50,0.00,,,0.00,0,Wunderground v.1.15,2013-09-02 06:00:00,
2013-09-02 00:05:00,70.2,51.7,29.77,SSW,213,0.0,1.0,52,0.00,,,0.00,0,Wunderground v.1.15,2013-09-02 06:05:00,
2013-09-02 00:15:00,69.8,50.9,29.77,SSW,212,0.0,0.0,51,0.00,,,0.00,0,Wunderground v.1.15,2013-09-02 06:15:00,
2013-09-02 00:20:00,69.7,51.3,29.77,SSW,213,0.0,0.0,52,0.00,,,0.00,0,Wunderground v.1.15,2013-09-02 06:20:00,
2013-09-02 00:25:00,69.6,51.2,29.77,SSW,212,0.0,0.0,52,0.00,,,0.00,0,Wunderground v.1.15,2013-09-02 06:25:00,
2013-09-02 00:35:00,68.8,52.5,29.77,SSW,212,0.0,1.0,56,0.00,,,0.00,0,Wunderground v.1.15,2013-09-02 06:35:00,
2013-09-02 00:40:00,68.3,52.0,29.77,SSW,213,0.0,0.0,56,0.00,,,0.00,0,Wunderground v.1.15,2013-09-02 06:40:00,
2013-09-02 00:50:00,67.8,52.5,29.77,SSW,212,0.0,0.0,58,0.00,,,0.00,0,Wunderground v.1.15,2013-09-02 06:50:00,
2013-09-02 01:00:00,67.2,52.8,29.77,SSW,212,0.0,0.0,60,0.00,,,0.00,0,Wunderground v.1.15,2013-09-02 07:00:00,
2013-09-02 01:10:00,66.8,52.5,29.78,SSW,212,0.0,1.0,60,0.00,,,0.00,0,Wunderground v.1.15,2013-09-02 07:10:00,
2013-09-02 01:20:00,66.5,52.2,29.78,SSW,212,0.0,1.0,60,0.00,,,0.00,0,Wunderground v.1.15,2013-09-02 07:20:00,
2013-09-02 01:25:00,66.5,52.2,29.78,SSW,212,0.0,1.0,60,0.00,,,0.00,0,Wunderground v.1.15,2013-09-02 07:25:00,
2013-09-02 01:35:00,66.3,52.4,29.79,SW,220,0.0,3.0,61,0.00,,,0.00,0,Wunderground v.1.15,2013-09-02 07:35:00,
2013-09-02 01:45:00,65.7,51.9,29.78,SW,215,0.0,1.0,61,0.00,,,0.00,0,Wunderground v.1.15,2013-09-02 07:45:00,
2013-09-02 01:55:00,65.3,51.9,29.78,SW,215,0.0,1.0,62,0.00,,,0.00,0,Wunderground v.1.15,2013-09-02 07:55:00,
2013-09-02 02:05:00,64.8,51.9,29.78,SW,215,0.0,1.0,63,0.00,,,0.00,0,Wunderground v.1.15,2013-09-02 08:05:00,
2013-09-02 02:15:00,64.6,51.7,29.78,SW,215,0.0,1.0,63,0.00,,,0.00,0,Wunderground v.1.15,2013-09-02 08:15:00,
2013-09-02 02:20:00,64.4,51.5,29.79,SW,215,0.0,1.0,63,0.00,,,0.00,0,Wunderground v.1.15,2013-09-02 08:20:00,
2013-09-02 02:30:00,64.1,51.7,29.79,SW,214,0.0,1.0,64,0.00,,,0.00,0,Wunderground v.1.15,2013-09-02 08:30:00,
2013-09-02 02:40:00,63.8,51.4,29.80,SW,215,0.0,1.0,64,0.00,,,0.00,0,Wunderground v.1.15,2013-09-02 08:40:00,
2013-09-02 02:45:00,63.6,51.2,29.80,SW,214,0.0,1.0,64,0.00,,,0.00,0,Wunderground v.1.15,2013-09-02 08:45:00,
2013-09-02 02:55:00,63.3,50.9,29.80,SW,214,0.0,1.0,64,0.00,,,0.00,0,Wunderground v.1.15,2013-09-02 08:55:00,
2013-09-02 03:05:00,63.2,51.2,29.80,SW,215,0.0,1.0,65,0.00,,,0.00,0,Wunderground v.1.15,2013-09-02 09:05:00,
2013-09-02 03:15:00,62.8,50.9,29.80,SW,215,0.0,0.0,65,0.00,,,0.00,0,Wunderground v.1.15,2013-09-02 09:15:00,
2013-09-02 03:20:00,62.7,51.2,29.81,SW,215,0.0,0.0,66,0.00,,,0.00,0,Wunderground v.1.15,2013-09-02 09:20:00,
2013-09-02 03:30:00,62.5,51.0,29.81,SW,214,0.0,0.0,66,0.00,,,0.00,0,Wunderground v.1.15,2013-09-02 09:30:00,
2013-09-02 03:40:00,62.2,50.7,29.81,SW,215,0.0,0.0,66,0.00,,,0.00,0,Wunderground v.1.15,2013-09-02 09:40:00,
2013-09-02 03:45:00,62.2,51.1,29.81,SSW,197,0.0,0.0,67,0.00,,,0.00,0,Wunderground v.1.15,2013-09-02 09:45:00,
2013-09-02 03:55:00,61.9,50.8,29.82,SSW,197,0.0,0.0,67,0.00,,,0.00,0,Wunderground v.1.15,2013-09-02 09:55:00,
2013-09-02 04:05:00,61.7,50.6,29.82,SSW,197,0.0,0.0,67,0.00,,,0.00,0,Wunderground v.1.15,2013-09-02 10:05:00,
2013-09-02 04:15:00,61.1,50.5,29.82,SSW,197,0.0,0.0,68,0.00,,,0.00,0,Wunderground v.1.15,2013-09-02 10:15:00,
2013-09-02 04:20:00,60.8,50.2,29.82,SSW,197,0.0,0.0,68,0.00,,,0.00,0,Wunderground v.1.15,2013-09-02 10:20:00,
2013-09-02 04:25:00,60.8,51.0,29.82,SSW,197,0.0,0.0,70,0.00,,,0.00,0,Wunderground v.1.15,2013-09-02 10:25:00,
2013-09-02 04:30:00,60.9,50.7,29.82,SSW,197,0.0,0.0,69,0.00,,,0.00,0,Wunderground v.1.15,2013-09-02 10:30:00,
2013-09-02 04:35:00,60.9,51.0,29.82,SSW,197,0.0,0.0,70,0.00,,,0.00,0,Wunderground v.1.15,2013-09-02 10:35:00,
2013-09-02 04:40:00,60.8,51.3,29.82,SSW,197,0.0,0.0,71,0.00,,,0.00,0,Wunderground v.1.15,2013-09-02 10:40:00,
2013-09-02 04:50:00,60.5,50.3,29.82,SSW,197,0.0,0.0,69,0.00,,,0.00,0,Wunderground v.1.15,2013-09-02 10:50:00,
2013-09-02 04:55:00,60.3,50.1,29.82,SSW,197,0.0,0.0,69,0.00,,,0.00,0,Wunderground v.1.15,2013-09-02 10:55:00,
2013-09-02 05:05:00,60.2,50.4,29.82,SSW,197,0.0,0.0,70,0.00,,,0.00,0,Wunderground v.1.15,2013-09-02 11:05:00,
2013-09-02 05:10:00,59.9,50.1,29.83,WSW,251,0.0,0.0,70,0.00,,,0.00,0,Wunderground v.1.15,2013-09-02 11:10:00,
2013-09-02 05:20:00,59.6,49.8,29.83,WSW,251,0.0,0.0,70,0.00,,,0.00,0,Wunderground v.1.15,2013-09-02 11:20:00,
2013-09-02 05:25:00,59.8,50.4,29.83,WSW,251,0.0,0.0,71,0.00,,,0.00,0,Wunderground v.1.15,2013-09-02 11:25:00,
2013-09-02 05:35:00,59.5,50.1,29.83,WSW,251,0.0,0.0,71,0.00,,,0.00,0,Wunderground v.1.15,2013-09-02 11:35:00,
2013-09-02 05:45:00,59.3,50.3,29.84,WSW,251,0.0,0.0,72,0.00,,,0.00,0,Wunderground v.1.15,2013-09-02 11:45:00,
2013-09-02 05:55:00,59.3,50.3,29.83,WSW,251,0.0,0.0,72,0.00,,,0.00,0,Wunderground v.1.15,2013-09-02 11:55:00,
2013-09-02 06:05:00,59.2,50.2,29.84,WSW,251,0.0,0.0,72,0.00,,,0.00,0,Wunderground v.1.15,2013-09-02 12:05:00,
2013-09-02 06:15:00,58.9,49.9,29.84,WSW,251,0.0,0.0,72,0.00,,,0.00,0,Wunderground v.1.15,2013-09-02 12:15:00,
2013-09-02 06:20:00,59.0,50.4,29.85,WSW,251,0.0,0.0,73,0.00,,,0.00,0,Wunderground v.1.15,2013-09-02 12:20:00,
2013-09-02 06:30:00,58.6,49.6,29.85,WSW,251,0.0,0.0,72,0.00,,,0.00,0,Wunderground v.1.15,2013-09-02 12:30:00,
2013-09-02 06:40:00,58.5,49.5,29.85,WSW,251,0.0,0.0,72,0.00,,,0.00,0,Wunderground v.1.15,2013-09-02 12:40:00,
2013-09-02 06:45:00,58.4,49.4,29.86,WSW,251,0.0,0.0,72,0.00,,,0.00,5,Wunderground v.1.15,2013-09-02 12:45:00,
2013-09-02 06:55:00,58.2,49.6,29.86,WSW,251,0.0,0.0,73,0.00,,,0.00,9,Wunderground v.1.15,2013-09-02 12:55:00,
2013-09-02 07:05:00,58.1,49.9,29.86,WSW,251,0.0,1.0,74,0.00,,,0.00,12,Wunderground v.1.15,2013-09-02 13:05:00,
2013-09-02 07:10:00,58.0,49.8,29.86,WSW,251,0.0,1.0,74,0.00,,,0.00,14,Wunderground v.1.15,2013-09-02 13:10:00,
2013-09-02 07:15:00,57.8,49.6,29.86,WSW,251,0.0,1.0,74,0.00,,,0.00,19,Wunderground v.1.15,2013-09-02 13:15:00,
2013-09-02 07:20:00,57.9,49.7,29.86,WSW,251,0.0,1.0,74,0.00,,,0.00,19,Wunderground v.1.15,2013-09-02 13:20:00,
2013-09-02 07:30:00,58.1,50.6,29.87,WSW,251,0.0,1.0,76,0.00,,,0.00,18,Wunderground v.1.15,2013-09-02 13:30:00,
2013-09-02 07:40:00,58.2,50.0,29.87,WSW,251,0.0,1.0,74,0.00,,,0.00,28,Wunderground v.1.15,2013-09-02 13:40:00,
2013-09-02 07:50:00,58.1,49.9,29.87,WSW,251,0.0,1.0,74,0.00,,,0.00,30,Wunderground v.1.15,2013-09-02 13:50:00,
2013-09-02 07:55:00,57.8,49.6,29.88,WSW,251,0.0,1.0,74,0.00,,,0.00,28,Wunderground v.1.15,2013-09-02 13:55:00,
2013-09-02 08:05:00,57.8,49.6,29.87,WSW,251,0.0,1.0,74,0.00,,,0.00,35,Wunderground v.1.15,2013-09-02 14:05:00,
2013-09-02 08:15:00,58.6,50.7,29.87,WSW,251,0.0,1.0,75,0.00,,,0.00,241,Wunderground v.1.15,2013-09-02 14:15:00,
2013-09-02 08:20:00,59.2,50.9,29.87,WSW,251,0.0,1.0,74,0.00,,,0.00,257,Wunderground v.1.15,2013-09-02 14:20:00,
2013-09-02 08:25:00,60.2,51.9,29.87,WSW,251,0.0,1.0,74,0.00,,,0.00,272,Wunderground v.1.15,2013-09-02 14:25:00,
2013-09-02 08:30:00,61.1,52.4,29.87,WSW,251,0.0,1.0,73,0.00,,,0.00,285,Wunderground v.1.15,2013-09-02 14:30:00,
2013-09-02 08:35:00,61.9,52.0,29.87,WSW,251,0.0,1.0,70,0.00,,,0.00,301,Wunderground v.1.15,2013-09-02 14:35:00,
2013-09-02 08:40:00,62.3,51.2,29.87,WSW,250,0.0,1.0,67,0.00,,,0.00,316,Wunderground v.1.15,2013-09-02 14:40:00,
2013-09-02 08:50:00,63.9,52.3,29.87,WSW,251,0.0,1.0,66,0.00,,,0.00,188,Wunderground v.1.15,2013-09-02 14:50:00,
2013-09-02 09:00:00,64.6,51.3,29.87,WSW,251,0.0,1.0,62,0.00,,,0.00,378,Wunderground v.1.15,2013-09-02 15:00:00,
2013-09-02 09:05:00,65.6,51.8,29.87,WSW,251,0.0,1.0,61,0.00,,,0.00,394,Wunderground v.1.15,2013-09-02 15:05:00,
2013-09-02 09:15:00,67.2,51.9,29.86,East,99,0.0,0.0,58,0.00,,,0.00,422,Wunderground v.1.15,2013-09-02 15:15:00,
2013-09-02 09:25:00,68.7,51.4,29.86,NNE,27,0.0,0.0,54,0.00,,,0.00,452,Wunderground v.1.15,2013-09-02 15:25:00,
2013-09-02 09:35:00,69.7,50.2,29.86,NNE,28,0.0,0.0,50,0.00,,,0.00,478,Wunderground v.1.15,2013-09-02 15:35:00,
2013-09-02 09:40:00,70.0,51.0,29.86,NNE,27,0.0,0.0,51,0.00,,,0.00,492,Wunderground v.1.15,2013-09-02 15:40:00,
2013-09-02 09:45:00,70.8,51.8,29.86,NNE,28,0.0,0.0,51,0.00,,,0.00,506,Wunderground v.1.15,2013-09-02 15:45:00,
2013-09-02 09:55:00,71.9,51.1,29.85,ENE,57,0.0,2.0,48,0.00,,,0.00,533,Wunderground v.1.15,2013-09-02 15:55:00,
2013-09-02 10:05:00,72.6,51.2,29.85,South,177,0.0,3.0,47,0.00,,,0.00,555,Wunderground v.1.15,2013-09-02 16:05:00,
2013-09-02 10:15:00,73.3,51.3,29.85,SSE,158,0.0,1.0,46,0.00,,,0.00,585,Wunderground v.1.15,2013-09-02 16:15:00,
2013-09-02 10:20:00,74.1,52.0,29.85,SSE,158,0.0,1.0,46,0.00,,,0.00,603,Wunderground v.1.15,2013-09-02 16:20:00,
2013-09-02 10:25:00,74.4,51.1,29.84,SW,220,0.0,2.0,44,0.00,,,0.00,621,Wunderground v.1.15,2013-09-02 16:25:00,
2013-09-02 10:35:00,75.1,51.1,29.84,ESE,122,1.0,1.0,43,0.00,,,0.00,635,Wunderground v.1.15,2013-09-02 16:35:00,
2013-09-02 10:40:00,75.3,50.0,29.84,ESE,122,0.0,1.0,41,0.00,,,0.00,643,Wunderground v.1.15,2013-09-02 16:40:00,
2013-09-02 10:45:00,76.8,52.0,29.84,ESE,122,0.0,1.0,42,0.00,,,0.00,656,Wunderground v.1.15,2013-09-02 16:45:00,
2013-09-02 10:50:00,77.1,51.6,29.83,ESE,122,0.0,1.0,41,0.00,,,0.00,670,Wunderground v.1.15,2013-09-02 16:50:00,
2013-09-02 10:55:00,77.2,50.3,29.83,NW,318,0.0,1.0,39,0.00,,,0.00,691,Wunderground v.1.15,2013-09-02 16:55:00,
2013-09-02 11:05:00,78.3,49.9,29.83,East,81,0.0,1.0,37,0.00,,,0.00,754,Wunderground v.1.15,2013-09-02 17:05:00,
2013-09-02 11:15:00,79.8,50.5,29.82,SW,220,0.0,1.0,36,0.00,,,0.00,745,Wunderground v.1.15,2013-09-02 17:15:00,
2013-09-02 11:20:00,79.2,49.9,29.81,SW,226,1.0,1.0,36,0.00,,,0.00,724,Wunderground v.1.15,2013-09-02 17:20:00,
2013-09-02 11:30:00,80.2,49.3,29.81,SE,129,1.0,1.0,34,0.00,,,0.00,775,Wunderground v.1.15,2013-09-02 17:30:00,
2013-09-02 11:40:00,80.1,50.7,29.80,SSW,203,2.0,5.0,36,0.00,,,0.00,766,Wunderground v.1.15,2013-09-02 17:40:00,
2013-09-02 11:45:00,81.4,50.3,29.80,SSE,149,3.0,5.0,34,0.00,,,0.00,772,Wunderground v.1.15,2013-09-02 17:45:00,
2013-09-02 12:00:00,82.0,49.2,29.78,South,184,2.0,5.0,32,0.00,,,0.00,796,Wunderground v.1.15,2013-09-02 18:00:00,
2013-09-02 12:05:00,83.3,50.4,29.78,SSW,208,2.0,5.0,32,0.00,,,0.00,802,Wunderground v.1.15,2013-09-02 18:05:00,
2013-09-02 12:15:00,84.7,50.7,29.77,SSE,148,1.0,2.0,31,0.00,,,0.00,812,Wunderground v.1.15,2013-09-02 18:15:00,
2013-09-02 12:25:00,84.9,50.0,29.76,NNW,341,1.0,1.0,30,0.00,,,0.00,838,Wunderground v.1.15,2013-09-02 18:25:00,
2013-09-02 12:30:00,85.8,49.9,29.76,SW,221,1.0,1.0,29,0.00,,,0.00,865,Wunderground v.1.15,2013-09-02 18:30:00,
2013-09-02 12:40:00,85.6,49.7,29.76,SSW,204,2.0,2.0,29,0.00,,,0.00,919,Wunderground v.1.15,2013-09-02 18:40:00,
2013-09-02 12:50:00,84.4,51.3,29.75,SSW,207,1.0,2.0,32,0.00,,,0.00,283,Wunderground v.1.15,2013-09-02 18:50:00,
2013-09-02 12:55:00,84.0,51.0,29.75,SW,218,3.0,3.0,32,0.00,,,0.00,276,Wunderground v.1.15,2013-09-02 18:55:00,
2013-09-02 13:05:00,84.6,51.5,29.75,SSW,204,3.0,6.0,32,0.00,,,0.00,424,Wunderground v.1.15,2013-09-02 19:05:00,
2013-09-02 13:15:00,85.1,51.1,29.75,SSW,208,3.0,6.0,31,0.00,,,0.00,817,Wunderground v.1.15,2013-09-02 19:15:00,
2013-09-02 13:30:00,83.9,52.5,29.75,SW,218,1.0,6.0,34,0.00,,,0.00,197,Wunderground v.1.15,2013-09-02 19:30:00,
2013-09-02 13:40:00,83.9,50.9,29.74,SW,221,1.0,6.0,32,0.00,,,0.00,221,Wunderground v.1.15,2013-09-02 19:40:00,
2013-09-02 13:45:00,83.8,52.4,29.74,SSW,206,2.0,6.0,34,0.00,,,0.00,199,Wunderground v.1.15,2013-09-02 19:45:00,
2013-09-02 13:50:00,83.7,51.5,29.74,SSW,206,2.0,2.0,33,0.00,,,0.00,213,Wunderground v.1.15,2013-09-02 19:50:00,
2013-09-02 14:00:00,84.3,52.1,29.74,SSW,199,2.0,6.0,33,0.00,,,0.00,288,Wunderground v.1.15,2013-09-02 20:00:00,
2013-09-02 14:10:00,83.8,49.1,29.73,SW,226,4.0,7.0,30,0.00,,,0.00,142,Wunderground v.1.15,2013-09-02 20:10:00,
2013-09-02 14:20:00,83.4,51.3,29.73,SSW,212,4.0,8.0,33,0.00,,,0.00,120,Wunderground v.1.15,2013-09-02 20:20:00,
2013-09-02 14:30:00,83.2,50.3,29.74,WSW,237,4.0,4.0,32,0.00,,,0.00,142,Wunderground v.1.15,2013-09-02 20:30:00,
2013-09-02 14:40:00,82.8,47.3,29.74,WSW,237,3.0,3.0,29,0.00,,,0.00,139,Wunderground v.1.15,2013-09-02 20:40:00,
2013-09-02 14:45:00,82.5,47.9,29.73,SW,236,1.0,6.0,30,0.00,,,0.00,165,Wunderground v.1.15,2013-09-02 20:45:00,
2013-09-02 14:55:00,82.3,49.5,29.73,SW,219,0.0,6.0,32,0.00,,,0.00,202,Wunderground v.1.15,2013-09-02 20:55:00,
2013-09-02 15:00:00,80.4,54.5,29.73,ENE,60,2.0,7.0,41,0.00,,,0.01,207,Wunderground v.1.15,2013-09-02 21:00:00,
2013-09-02 15:05:00,74.7,58.5,29.72,NE,51,4.0,7.0,57,0.00,,,0.01,601,Wunderground v.1.15,2013-09-02 21:05:00,
2013-09-02 15:15:00,75.2,60.4,29.72,ENE,72,1.0,4.0,60,0.00,,,0.01,227,Wunderground v.1.15,2013-09-02 21:15:00,
2013-09-02 15:25:00,75.9,60.5,29.72,ENE,64,1.0,1.0,59,0.00,,,0.01,192,Wunderground v.1.15,2013-09-02 21:25:00,
2013-09-02 15:35:00,78.5,55.4,29.72,East,93,0.0,1.0,45,0.00,,,0.01,345,Wunderground v.1.15,2013-09-02 21:35:00,
2013-09-02 15:40:00,80.2,54.4,29.71,NE,55,1.0,1.0,41,0.00,,,0.01,366,Wunderground v.1.15,2013-09-02 21:40:00,
2013-09-02 15:50:00,83.0,49.2,29.70,ENE,64,3.0,5.0,31,0.00,,,0.01,756,Wunderground v.1.15,2013-09-02 21:50:00,
2013-09-02 15:55:00,83.6,49.8,29.70,NNE,32,4.0,5.0,31,0.00,,,0.01,742,Wunderground v.1.15,2013-09-02 21:55:00,
2013-09-02 16:05:00,83.7,49.0,29.70,NE,56,1.0,7.0,30,0.00,,,0.01,246,Wunderground v.1.15,2013-09-02 22:05:00,
2013-09-02 16:10:00,84.9,50.0,29.70,NE,56,0.0,7.0,30,0.00,,,0.01,178,Wunderground v.1.15,2013-09-02 22:10:00,
2013-09-02 16:20:00,86.2,52.9,29.70,South,177,0.0,7.0,32,0.00,,,0.01,735,Wunderground v.1.15,2013-09-02 22:20:00,
2013-09-02 16:30:00,84.0,51.8,29.71,SE,137,2.0,2.0,33,0.00,,,0.01,149,Wunderground v.1.15,2013-09-02 22:30:00,
2013-09-02 16:35:00,83.6,50.6,29.70,SW,225,1.0,7.0,32,0.00,,,0.01,146,Wunderground v.1.15,2013-09-02 22:35:00,
2013-09-02 16:45:00,85.0,51.8,29.69,SW,222,0.0,7.0,32,0.00,,,0.01,652,Wunderground v.1.15,2013-09-02 22:45:00,
2013-09-02 16:55:00,86.8,52.5,29.68,SW,222,0.0,7.0,31,0.00,,,0.01,520,Wunderground v.1.15,2013-09-02 22:55:00,
2013-09-02 17:00:00,86.1,51.9,29.69,WSW,240,1.0,7.0,31,0.00,,,0.01,492,Wunderground v.1.15,2013-09-02 23:00:00,
2013-09-02 17:10:00,86.4,50.4,29.68,SW,226,3.0,3.0,29,0.00,,,0.01,462,Wunderground v.1.15,2013-09-02 23:10:00,
2013-09-02 17:20:00,85.8,48.9,29.68,SW,226,0.0,7.0,28,0.00,,,0.01,44,Wunderground v.1.15,2013-09-02 23:20:00,
2013-09-02 17:30:00,84.6,50.6,29.68,SW,226,0.0,7.0,31,0.00,,,0.01,62,Wunderground v.1.15,2013-09-02 23:30:00,
2013-09-02 17:40:00,84.3,50.4,29.68,SW,226,0.0,7.0,31,0.00,,,0.01,79,Wunderground v.1.15,2013-09-02 23:40:00,
2013-09-02 17:50:00,85.6,50.6,29.67,SW,226,0.0,7.0,30,0.00,,,0.01,77,Wunderground v.1.15,2013-09-02 23:50:00,
2013-09-02 18:00:00,86.1,49.2,29.67,SW,226,0.0,7.0,28,0.00,,,0.01,47,Wunderground v.1.15,2013-09-03 00:00:00,
2013-09-02 18:05:00,86.1,49.2,29.67,SW,226,0.0,7.0,28,0.00,,,0.01,39,Wunderground v.1.15,2013-09-03 00:05:00,
2013-09-02 18:15:00,86.0,49.1,29.67,SW,226,0.0,0.0,28,0.00,,,0.01,32,Wunderground v.1.15,2013-09-03 00:15:00,
2013-09-02 18:20:00,86.1,50.1,29.66,SW,226,0.0,0.0,29,0.00,,,0.01,26,Wunderground v.1.15,2013-09-03 00:20:00,
2013-09-02 18:25:00,86.0,51.0,29.67,SW,235,0.0,0.0,30,0.00,,,0.01,26,Wunderground v.1.15,2013-09-03 00:25:00,
2013-09-02 18:35:00,83.7,51.5,29.67,SW,235,1.0,3.0,33,0.00,,,0.01,25,Wunderground v.1.15,2013-09-03 00:35:00,
2013-09-02 18:45:00,82.4,52.0,29.67,SW,235,0.0,1.0,35,0.00,,,0.01,51,Wunderground v.1.15,2013-09-03 00:45:00,
2013-09-02 18:55:00,81.8,51.5,29.67,SW,235,0.0,1.0,35,0.00,,,0.01,18,Wunderground v.1.15,2013-09-03 00:55:00,
2013-09-02 19:05:00,81.3,52.5,29.67,SW,235,0.0,1.0,37,0.00,,,0.01,14,Wunderground v.1.15,2013-09-03 01:05:00,
2013-09-02 19:15:00,80.4,51.7,29.67,SW,234,0.0,1.0,37,0.00,,,0.01,11,Wunderground v.1.15,2013-09-03 01:15:00,
2013-09-02 19:25:00,79.4,50.9,29.68,SW,235,0.0,1.0,37,0.00,,,0.01,5,Wunderground v.1.15,2013-09-03 01:25:00,
2013-09-02 19:35:00,78.8,54.4,29.68,SW,235,0.0,1.0,43,0.00,,,0.01,0,Wunderground v.1.15,2013-09-03 01:35:00,
2013-09-02 19:45:00,78.0,52.4,29.68,SW,235,0.0,1.0,41,0.00,,,0.01,0,Wunderground v.1.15,2013-09-03 01:45:00,
2013-09-02 19:50:00,77.7,52.8,29.68,SW,235,0.0,1.0,42,0.00,,,0.01,0,Wunderground v.1.15,2013-09-03 01:50:00,
2013-09-02 20:00:00,76.8,53.8,29.68,SW,235,0.0,1.0,45,0.00,,,0.01,0,Wunderground v.1.15,2013-09-03 02:00:00,
2013-09-02 20:15:00,75.7,54.0,29.69,SW,235,0.0,1.0,47,0.00,,,0.01,0,Wunderground v.1.15,2013-09-03 02:15:00,
2013-09-02 20:20:00,75.5,53.3,29.69,SW,235,0.0,1.0,46,0.00,,,0.01,0,Wunderground v.1.15,2013-09-03 02:20:00,
2013-09-02 20:35:00,74.9,51.5,29.70,SW,235,0.0,1.0,44,0.00,,,0.01,0,Wunderground v.1.15,2013-09-03 02:35:00,
2013-09-02 20:40:00,74.8,52.0,29.70,SW,234,0.0,1.0,45,0.00,,,0.01,0,Wunderground v.1.15,2013-09-03 02:40:00,
2013-09-02 20:50:00,74.4,51.1,29.71,SW,234,0.0,1.0,44,0.00,,,0.01,0,Wunderground v.1.15,2013-09-03 02:50:00,
2013-09-02 21:00:00,74.4,51.1,29.71,SW,218,0.0,1.0,44,0.00,,,0.01,0,Wunderground v.1.15,2013-09-03 03:00:00,
2013-09-02 21:05:00,74.1,50.8,29.71,NE,50,0.0,1.0,44,0.00,,,0.01,0,Wunderground v.1.15,2013-09-03 03:05:00,
2013-09-02 21:20:00,73.5,50.2,29.72,NE,50,0.0,0.0,44,0.00,,,0.01,0,Wunderground v.1.15,2013-09-03 03:20:00,
2013-09-02 21:30:00,72.9,51.5,29.73,NE,50,0.0,0.0,47,0.00,,,0.01,0,Wunderground v.1.15,2013-09-03 03:30:00,
2013-09-02 21:35:00,72.5,51.7,29.73,NE,50,0.0,0.0,48,0.00,,,0.01,0,Wunderground v.1.15,2013-09-03 03:35:00,
2013-09-02 21:45:00,71.6,51.4,29.73,NE,50,0.0,0.0,49,0.00,,,0.01,0,Wunderground v.1.15,2013-09-03 03:45:00,
2013-09-02 21:50:00,71.5,51.3,29.74,NE,50,0.0,0.0,49,0.00,,,0.01,0,Wunderground v.1.15,2013-09-03 03:50:00,
2013-09-02 22:00:00,71.0,50.9,29.74,NE,50,0.0,0.0,49,0.00,,,0.01,0,Wunderground v.1.15,2013-09-03 04:00:00,
2013-09-02 22:05:00,70.7,51.1,29.75,NE,50,0.0,2.0,50,0.00,,,0.01,0,Wunderground v.1.15,2013-09-03 04:05:00,
2013-09-02 22:15:00,70.1,50.6,29.75,NE,50,0.0,2.0,50,0.00,,,0.01,0,Wunderground v.1.15,2013-09-03 04:15:00,
2013-09-02 22:20:00,69.9,50.9,29.75,NE,50,0.0,2.0,51,0.00,,,0.01,0,Wunderground v.1.15,2013-09-03 04:20:00,
2013-09-02 22:30:00,69.3,50.9,29.75,NE,50,0.0,2.0,52,0.00,,,0.01,0,Wunderground v.1.15,2013-09-03 04:30:00,
2013-09-02 22:35:00,69.0,51.2,29.76,NE,50,0.0,2.0,53,0.00,,,0.01,0,Wunderground v.1.15,2013-09-03 04:35:00,
2013-09-02 22:45:00,68.6,50.3,29.77,NE,50,0.0,2.0,52,0.00,,,0.01,0,Wunderground v.1.15,2013-09-03 04:45:00,
2013-09-02 22:50:00,68.4,50.6,29.77,NE,50,0.0,2.0,53,0.00,,,0.01,0,Wunderground v.1.15,2013-09-03 04:50:00,
2013-09-02 23:00:00,68.4,51.1,29.77,NE,50,0.0,2.0,54,0.00,,,0.01,0,Wunderground v.1.15,2013-09-03 05:00:00,
2013-09-02 23:10:00,68.1,50.3,29.77,NE,50,0.0,2.0,53,0.00,,,0.01,0,Wunderground v.1.15,2013-09-03 05:10:00,
2013-09-02 23:20:00,67.7,50.9,29.78,NE,50,0.0,2.0,55,0.00,,,0.01,0,Wunderground v.1.15,2013-09-03 05:20:00,
2013-09-02 23:30:00,67.4,51.2,29.78,NE,50,0.0,2.0,56,0.00,,,0.01,0,Wunderground v.1.15,2013-09-03 05:30:00,
2013-09-02 23:45:00,66.8,50.6,29.79,NE,50,0.0,2.0,56,0.00,,,0.01,0,Wunderground v.1.15,2013-09-03 05:45:00,
2013-09-02 23:55:00,66.4,50.2,29.80,NE,50,0.0,2.0,56,0.00,,,0.01,0,Wunderground v.1.15,2013-09-03 05:55:00,